Tacoma, Washington
Current Conditions -  °F | °C
As of 4:58 PM on Tuesday 21 Oct 2014 (Local Time) from KTCM Reporting Station
Overcast Overcast  
Wind Chill: 61°   Ceiling: 6000
Heat Index: 61°   Visibility: 10mi
Dew Point: 49°   Wind: 16mph
Humidity: 65%   Direction: 180°S
Pressure: 29.89"   Gusts: NA
Location:  47.26°N, 122.44°W
Report Text: KTCM 212358Z AUTO 18014KT 10SM OVC060 16/10 A2989 RMK AO2 SLP125 60000 T01620095 10175 20145 57011 $
Loading
Personal Weather Stations






























Interactive Weather Map
Tropical Storm Tracking
New forecast layout! Learn more

10-Day Weather Forecast

Advertisements
Track Severe Weather on mobile